sensor_id;sensor_type;location;lat;lon;timestamp;temperature;humidity
4425;DHT22;2225;53.568;13.266;2023-03-08T00:02:17;3.60;90.00
4425;DHT22;2225;53.568;13.266;2023-03-08T00:04:44;3.60;90.10
4425;DHT22;2225;53.568;13.266;2023-03-08T00:07:11;3.60;90.00
4425;DHT22;2225;53.568;13.266;2023-03-08T00:09:38;3.50;90.20
4425;DHT22;2225;53.568;13.266;2023-03-08T00:12:05;3.50;90.30
4425;DHT22;2225;53.568;13.266;2023-03-08T00:14:33;3.50;90.50
4425;DHT22;2225;53.568;13.266;2023-03-08T00:17:00;3.50;90.40
4425;DHT22;2225;53.568;13.266;2023-03-08T00:19:28;3.50;90.50
4425;DHT22;2225;53.568;13.266;2023-03-08T00:21:55;3.40;90.60
4425;DHT22;2225;53.568;13.266;2023-03-08T00:24:22;3.40;90.80
4425;DHT22;2225;53.568;13.266;2023-03-08T00:26:49;3.40;90.70
4425;DHT22;2225;53.568;13.266;2023-03-08T00:29:16;3.40;90.70
4425;DHT22;2225;53.568;13.266;2023-03-08T00:31:43;3.30;90.70
4425;DHT22;2225;53.568;13.266;2023-03-08T00:34:10;3.30;90.80
4425;DHT22;2225;53.568;13.266;2023-03-08T00:36:39;3.30;90.80
4425;DHT22;2225;53.568;13.266;2023-03-08T00:39:07;3.30;91.00
4425;DHT22;2225;53.568;13.266;2023-03-08T00:41:36;3.30;91.10
4425;DHT22;2225;53.568;13.266;2023-03-08T00:44:03;3.20;91.10
4425;DHT22;2225;53.568;13.266;2023-03-08T00:46:30;3.20;91.20
4425;DHT22;2225;53.568;13.266;2023-03-08T00:48:57;3.20;91.30
4425;DHT22;2225;53.568;13.266;2023-03-08T00:51:25;3.10;91.40
4425;DHT22;2225;53.568;13.266;2023-03-08T00:53:52;3.10;91.50
4425;DHT22;2225;53.568;13.266;2023-03-08T00:56:20;3.10;91.40
4425;DHT22;2225;53.568;13.266;2023-03-08T00:58:47;3.10;91.40
4425;DHT22;2225;53.568;13.266;2023-03-08T01:01:16;3.10;91.50
4425;DHT22;2225;53.568;13.266;2023-03-08T01:03:47;3.10;91.60
4425;DHT22;2225;53.568;13.266;2023-03-08T01:06:15;3.10;91.90
4425;DHT22;2225;53.568;13.266;2023-03-08T01:08:42;3.00;91.60
4425;DHT22;2225;53.568;13.266;2023-03-08T01:11:21;3.00;91.70
4425;DHT22;2225;53.568;13.266;2023-03-08T01:13:50;3.00;92.00
4425;DHT22;2225;53.568;13.266;2023-03-08T01:16:25;3.00;91.90
4425;DHT22;2225;53.568;13.266;2023-03-08T01:18:55;3.00;92.20
4425;DHT22;2225;53.568;13.266;2023-03-08T01:21:23;3.00;92.40
4425;DHT22;2225;53.568;13.266;2023-03-08T01:23:51;3.00;92.30
4425;DHT22;2225;53.568;13.266;2023-03-08T01:26:22;3.00;92.40
4425;DHT22;2225;53.568;13.266;2023-03-08T01:28:53;3.00;92.50
4425;DHT22;2225;53.568;13.266;2023-03-08T01:31:22;3.00;92.60
4425;DHT22;2225;53.568;13.266;2023-03-08T01:33:52;3.00;92.60
4425;DHT22;2225;53.568;13.266;2023-03-08T01:36:22;3.00;92.60
4425;DHT22;2225;53.568;13.266;2023-03-08T01:38:50;2.90;92.70
4425;DHT22;2225;53.568;13.266;2023-03-08T01:41:24;2.90;92.70
4425;DHT22;2225;53.568;13.266;2023-03-08T01:43:53;3.00;92.70
4425;DHT22;2225;53.568;13.266;2023-03-08T01:46:28;2.90;92.70
4425;DHT22;2225;53.568;13.266;2023-03-08T01:49:09;2.90;92.70
4425;DHT22;2225;53.568;13.266;2023-03-08T01:51:49;2.90;92.80
4425;DHT22;2225;53.568;13.266;2023-03-08T01:54:27;2.90;92.70
4425;DHT22;2225;53.568;13.266;2023-03-08T01:57:02;2.90;92.90
4425;DHT22;2225;53.568;13.266;2023-03-08T01:59:33;2.90;92.90
4425;DHT22;2225;53.568;13.266;2023-03-08T02:02:01;2.90;92.80
4425;DHT22;2225;53.568;13.266;2023-03-08T02:04:30;2.90;92.80
4425;DHT22;2225;53.568;13.266;2023-03-08T02:06:58;2.90;93.00
4425;DHT22;2225;53.568;13.266;2023-03-08T02:09:26;2.80;92.90
4425;DHT22;2225;53.568;13.266;2023-03-08T02:11:54;2.90;93.00
4425;DHT22;2225;53.568;13.266;2023-03-08T02:14:25;2.90;92.90
4425;DHT22;2225;53.568;13.266;2023-03-08T02:16:53;2.90;92.80
4425;DHT22;2225;53.568;13.266;2023-03-08T02:19:26;2.90;92.90
4425;DHT22;2225;53.568;13.266;2023-03-08T02:21:58;2.90;93.00
4425;DHT22;2225;53.568;13.266;2023-03-08T02:24:24;2.90;92.80
4425;DHT22;2225;53.568;13.266;2023-03-08T02:26:59;2.90;92.80
4425;DHT22;2225;53.568;13.266;2023-03-08T02:29:30;2.90;92.90
4425;DHT22;2225;53.568;13.266;2023-03-08T02:31:57;2.80;92.90
4425;DHT22;2225;53.568;13.266;2023-03-08T02:34:24;2.80;92.90
4425;DHT22;2225;53.568;13.266;2023-03-08T02:36:51;2.80;92.80
4425;DHT22;2225;53.568;13.266;2023-03-08T02:39:17;2.80;92.80
4425;DHT22;2225;53.568;13.266;2023-03-08T02:41:45;2.80;92.80
4425;DHT22;2225;53.568;13.266;2023-03-08T02:44:12;2.80;92.90
4425;DHT22;2225;53.568;13.266;2023-03-08T02:46:39;2.80;92.80
4425;DHT22;2225;53.568;13.266;2023-03-08T02:49:06;2.80;92.80
4425;DHT22;2225;53.568;13.266;2023-03-08T02:51:33;2.80;92.90
4425;DHT22;2225;53.568;13.266;2023-03-08T02:54:00;2.80;93.00
4425;DHT22;2225;53.568;13.266;2023-03-08T02:56:27;2.80;93.10
4425;DHT22;2225;53.568;13.266;2023-03-08T02:58:54;2.80;93.20
4425;DHT22;2225;53.568;13.266;2023-03-08T03:01:22;2.70;93.30
4425;DHT22;2225;53.568;13.266;2023-03-08T03:03:52;2.70;93.30
4425;DHT22;2225;53.568;13.266;2023-03-08T03:06:21;2.70;93.40
4425;DHT22;2225;53.568;13.266;2023-03-08T03:08:51;2.70;93.50
4425;DHT22;2225;53.568;13.266;2023-03-08T03:11:20;2.70;93.40
4425;DHT22;2225;53.568;13.266;2023-03-08T03:13:57;2.70;93.50
4425;DHT22;2225;53.568;13.266;2023-03-08T03:16:30;2.70;93.60
4425;DHT22;2225;53.568;13.266;2023-03-08T03:18:57;2.70;93.50
4425;DHT22;2225;53.568;13.266;2023-03-08T03:21:24;2.70;93.70
4425;DHT22;2225;53.568;13.266;2023-03-08T03:23:53;2.70;93.70
4425;DHT22;2225;53.568;13.266;2023-03-08T03:26:26;2.70;93.80
4425;DHT22;2225;53.568;13.266;2023-03-08T03:28:56;2.70;93.70
4425;DHT22;2225;53.568;13.266;2023-03-08T03:31:26;2.70;93.80
4425;DHT22;2225;53.568;13.266;2023-03-08T03:33:54;2.70;93.80
4425;DHT22;2225;53.568;13.266;2023-03-08T03:36:23;2.60;93.80
4425;DHT22;2225;53.568;13.266;2023-03-08T03:38:51;2.70;93.70
4425;DHT22;2225;53.568;13.266;2023-03-08T03:41:20;2.70;93.70
4425;DHT22;2225;53.568;13.266;2023-03-08T03:43:57;2.70;93.80
4425;DHT22;2225;53.568;13.266;2023-03-08T03:46:24;2.60;93.90
4425;DHT22;2225;53.568;13.266;2023-03-08T03:48:54;2.70;93.80
4425;DHT22;2225;53.568;13.266;2023-03-08T03:51:22;2.70;93.90
4425;DHT22;2225;53.568;13.266;2023-03-08T03:53:59;2.60;94.00
4425;DHT22;2225;53.568;13.266;2023-03-08T03:56:26;2.70;94.20
4425;DHT22;2225;53.568;13.266;2023-03-08T03:58:58;2.60;94.30
4425;DHT22;2225;53.568;13.266;2023-03-08T04:01:28;2.60;94.20
4425;DHT22;2225;53.568;13.266;2023-03-08T04:04:07;2.60;94.30
4425;DHT22;2225;53.568;13.266;2023-03-08T04:06:38;2.60;94.50
4425;DHT22;2225;53.568;13.266;2023-03-08T04:09:07;2.60;94.30
4425;DHT22;2225;53.568;13.266;2023-03-08T04:11:38;2.60;94.40
4425;DHT22;2225;53.568;13.266;2023-03-08T04:14:09;2.60;94.40
4425;DHT22;2225;53.568;13.266;2023-03-08T04:16:37;2.60;94.40
4425;DHT22;2225;53.568;13.266;2023-03-08T04:19:12;2.60;94.70
4425;DHT22;2225;53.568;13.266;2023-03-08T04:21:45;2.60;94.70
4425;DHT22;2225;53.568;13.266;2023-03-08T04:24:14;2.60;94.60
4425;DHT22;2225;53.568;13.266;2023-03-08T04:26:44;2.70;94.50
4425;DHT22;2225;53.568;13.266;2023-03-08T04:29:15;2.70;94.50
4425;DHT22;2225;53.568;13.266;2023-03-08T04:31:42;2.70;94.40
4425;DHT22;2225;53.568;13.266;2023-03-08T04:34:13;2.70;94.20
4425;DHT22;2225;53.568;13.266;2023-03-08T04:36:41;2.70;94.50
4425;DHT22;2225;53.568;13.266;2023-03-08T04:39:08;2.70;94.60
4425;DHT22;2225;53.568;13.266;2023-03-08T04:41:35;2.70;94.50
4425;DHT22;2225;53.568;13.266;2023-03-08T04:44:11;2.70;94.60
4425;DHT22;2225;53.568;13.266;2023-03-08T04:46:42;2.70;94.60
4425;DHT22;2225;53.568;13.266;2023-03-08T04:49:14;2.70;94.30
4425;DHT22;2225;53.568;13.266;2023-03-08T04:51:45;2.70;94.20
4425;DHT22;2225;53.568;13.266;2023-03-08T04:54:12;2.70;94.20
4425;DHT22;2225;53.568;13.266;2023-03-08T04:56:45;2.70;94.30
4425;DHT22;2225;53.568;13.266;2023-03-08T04:59:13;2.70;94.30
4425;DHT22;2225;53.568;13.266;2023-03-08T05:01:40;2.60;94.20
4425;DHT22;2225;53.568;13.266;2023-03-08T05:04:10;2.60;94.10
4425;DHT22;2225;53.568;13.266;2023-03-08T05:06:38;2.70;94.20
4425;DHT22;2225;53.568;13.266;2023-03-08T05:09:07;2.60;94.10
4425;DHT22;2225;53.568;13.266;2023-03-08T05:11:36;2.60;94.00
4425;DHT22;2225;53.568;13.266;2023-03-08T05:14:04;2.60;94.00
4425;DHT22;2225;53.568;13.266;2023-03-08T05:16:31;2.60;94.00
4425;DHT22;2225;53.568;13.266;2023-03-08T05:18:58;2.60;94.40
4425;DHT22;2225;53.568;13.266;2023-03-08T05:21:32;2.60;94.10
4425;DHT22;2225;53.568;13.266;2023-03-08T05:24:00;2.70;94.20
4425;DHT22;2225;53.568;13.266;2023-03-08T05:26:31;2.70;94.30
4425;DHT22;2225;53.568;13.266;2023-03-08T05:29:02;2.80;94.40
4425;DHT22;2225;53.568;13.266;2023-03-08T05:31:30;2.80;94.30
4425;DHT22;2225;53.568;13.266;2023-03-08T05:34:02;2.80;94.30
4425;DHT22;2225;53.568;13.266;2023-03-08T05:36:34;2.90;94.30
4425;DHT22;2225;53.568;13.266;2023-03-08T05:39:02;2.90;94.30
4425;DHT22;2225;53.568;13.266;2023-03-08T05:41:36;2.90;94.30
4425;DHT22;2225;53.568;13.266;2023-03-08T05:44:04;2.90;94.40
4425;DHT22;2225;53.568;13.266;2023-03-08T05:46:33;3.00;94.30
4425;DHT22;2225;53.568;13.266;2023-03-08T05:49:01;3.00;94.50
4425;DHT22;2225;53.568;13.266;2023-03-08T05:51:32;3.00;94.60
4425;DHT22;2225;53.568;13.266;2023-03-08T05:53:59;3.00;94.80
4425;DHT22;2225;53.568;13.266;2023-03-08T05:56:26;3.00;95.10
4425;DHT22;2225;53.568;13.266;2023-03-08T05:59:05;3.10;95.40
4425;DHT22;2225;53.568;13.266;2023-03-08T06:01:32;3.10;95.40
4425;DHT22;2225;53.568;13.266;2023-03-08T06:04:11;3.20;95.30
4425;DHT22;2225;53.568;13.266;2023-03-08T06:06:41;3.30;95.30
4425;DHT22;2225;53.568;13.266;2023-03-08T06:09:08;3.40;95.20
4425;DHT22;2225;53.568;13.266;2023-03-08T06:11:38;3.40;95.30
4425;DHT22;2225;53.568;13.266;2023-03-08T06:14:05;3.50;95.20
4425;DHT22;2225;53.568;13.266;2023-03-08T06:16:33;3.60;95.20
4425;DHT22;2225;53.568;13.266;2023-03-08T06:19:01;3.60;95.20
4425;DHT22;2225;53.568;13.266;2023-03-08T06:21:29;3.70;95.30
4425;DHT22;2225;53.568;13.266;2023-03-08T06:23:59;3.80;95.30
4425;DHT22;2225;53.568;13.266;2023-03-08T06:26:27;3.80;95.30
4425;DHT22;2225;53.568;13.266;2023-03-08T06:28:54;3.90;95.10
4425;DHT22;2225;53.568;13.266;2023-03-08T06:31:25;3.90;95.10
4425;DHT22;2225;53.568;13.266;2023-03-08T06:33:53;4.00;95.10
4425;DHT22;2225;53.568;13.266;2023-03-08T06:36:23;4.00;95.10
4425;DHT22;2225;53.568;13.266;2023-03-08T06:38:50;4.00;95.00
4425;DHT22;2225;53.568;13.266;2023-03-08T06:41:18;4.10;95.10
4425;DHT22;2225;53.568;13.266;2023-03-08T06:43:50;4.10;95.10
4425;DHT22;2225;53.568;13.266;2023-03-08T06:46:17;4.20;95.00
4425;DHT22;2225;53.568;13.266;2023-03-08T06:48:45;4.20;94.90
4425;DHT22;2225;53.568;13.266;2023-03-08T06:51:14;4.20;94.90
4425;DHT22;2225;53.568;13.266;2023-03-08T06:53:44;4.30;94.80
4425;DHT22;2225;53.568;13.266;2023-03-08T06:56:15;4.30;94.80
4425;DHT22;2225;53.568;13.266;2023-03-08T06:58:49;4.30;94.70
4425;DHT22;2225;53.568;13.266;2023-03-08T07:01:16;4.40;94.60
4425;DHT22;2225;53.568;13.266;2023-03-08T07:03:43;4.40;94.60
4425;DHT22;2225;53.568;13.266;2023-03-08T07:06:11;4.40;94.60
4425;DHT22;2225;53.568;13.266;2023-03-08T07:08:38;4.50;94.50
4425;DHT22;2225;53.568;13.266;2023-03-08T07:11:06;4.50;94.50
4425;DHT22;2225;53.568;13.266;2023-03-08T07:13:35;4.60;94.50
4425;DHT22;2225;53.568;13.266;2023-03-08T07:16:07;4.60;94.50
4425;DHT22;2225;53.568;13.266;2023-03-08T07:18:35;4.60;94.40
4425;DHT22;2225;53.568;13.266;2023-03-08T07:21:02;4.60;94.40
4425;DHT22;2225;53.568;13.266;2023-03-08T07:23:29;4.70;94.30
4425;DHT22;2225;53.568;13.266;2023-03-08T07:25:56;4.70;94.10
4425;DHT22;2225;53.568;13.266;2023-03-08T07:28:23;4.70;94.00
4425;DHT22;2225;53.568;13.266;2023-03-08T07:30:51;4.70;93.90
4425;DHT22;2225;53.568;13.266;2023-03-08T07:33:19;4.70;93.90
4425;DHT22;2225;53.568;13.266;2023-03-08T07:35:47;4.70;93.80
4425;DHT22;2225;53.568;13.266;2023-03-08T07:38:15;4.80;93.80
4425;DHT22;2225;53.568;13.266;2023-03-08T07:40:43;4.80;93.60
4425;DHT22;2225;53.568;13.266;2023-03-08T07:43:10;4.80;93.60
4425;DHT22;2225;53.568;13.266;2023-03-08T07:46:03;4.90;93.60
4425;DHT22;2225;53.568;13.266;2023-03-08T07:48:31;4.90;93.40
4425;DHT22;2225;53.568;13.266;2023-03-08T07:51:05;4.90;93.20
4425;DHT22;2225;53.568;13.266;2023-03-08T07:53:36;5.00;93.10
4425;DHT22;2225;53.568;13.266;2023-03-08T07:56:03;5.10;93.10
4425;DHT22;2225;53.568;13.266;2023-03-08T07:58:31;5.10;93.10
4425;DHT22;2225;53.568;13.266;2023-03-08T08:00:58;5.20;93.00
4425;DHT22;2225;53.568;13.266;2023-03-08T08:03:25;5.20;92.90
4425;DHT22;2225;53.568;13.266;2023-03-08T08:05:54;5.30;93.10
4425;DHT22;2225;53.568;13.266;2023-03-08T08:08:21;5.40;92.90
4425;DHT22;2225;53.568;13.266;2023-03-08T08:10:48;5.50;92.70
4425;DHT22;2225;53.568;13.266;2023-03-08T08:13:15;5.50;92.50
4425;DHT22;2225;53.568;13.266;2023-03-08T08:15:42;5.60;92.40
4425;DHT22;2225;53.568;13.266;2023-03-08T08:18:09;5.70;92.40
4425;DHT22;2225;53.568;13.266;2023-03-08T08:20:36;5.80;92.40
4425;DHT22;2225;53.568;13.266;2023-03-08T08:23:06;5.80;92.20
4425;DHT22;2225;53.568;13.266;2023-03-08T08:25:33;5.90;91.80
4425;DHT22;2225;53.568;13.266;2023-03-08T08:28:00;5.90;91.90
4425;DHT22;2225;53.568;13.266;2023-03-08T08:30:27;5.90;91.80
4425;DHT22;2225;53.568;13.266;2023-03-08T08:32:54;6.00;91.80
4425;DHT22;2225;53.568;13.266;2023-03-08T08:35:21;6.00;91.80
4425;DHT22;2225;53.568;13.266;2023-03-08T08:37:59;6.00;91.40
4425;DHT22;2225;53.568;13.266;2023-03-08T08:40:26;6.00;91.10
4425;DHT22;2225;53.568;13.266;2023-03-08T08:42:54;6.10;91.10
4425;DHT22;2225;53.568;13.266;2023-03-08T08:45:20;6.10;91.00
4425;DHT22;2225;53.568;13.266;2023-03-08T08:47:47;6.10;90.90
4425;DHT22;2225;53.568;13.266;2023-03-08T08:50:14;6.10;90.90
4425;DHT22;2225;53.568;13.266;2023-03-08T08:52:41;6.10;91.30
4425;DHT22;2225;53.568;13.266;2023-03-08T08:55:08;6.20;90.80
4425;DHT22;2225;53.568;13.266;2023-03-08T08:57:35;6.20;90.70
4425;DHT22;2225;53.568;13.266;2023-03-08T09:00:03;6.20;90.70
4425;DHT22;2225;53.568;13.266;2023-03-08T09:02:36;6.20;90.70
4425;DHT22;2225;53.568;13.266;2023-03-08T09:05:03;6.20;90.60
4425;DHT22;2225;53.568;13.266;2023-03-08T09:07:30;6.20;90.60
4425;DHT22;2225;53.568;13.266;2023-03-08T09:09:57;6.20;90.70
4425;DHT22;2225;53.568;13.266;2023-03-08T09:12:27;6.20;90.80
4425;DHT22;2225;53.568;13.266;2023-03-08T09:14:55;6.20;90.80
4425;DHT22;2225;53.568;13.266;2023-03-08T09:17:22;6.20;90.80
4425;DHT22;2225;53.568;13.266;2023-03-08T09:19:49;6.30;91.00
4425;DHT22;2225;53.568;13.266;2023-03-08T09:22:16;6.40;90.70
4425;DHT22;2225;53.568;13.266;2023-03-08T09:24:43;6.40;90.50
4425;DHT22;2225;53.568;13.266;2023-03-08T09:27:13;6.40;90.50
4425;DHT22;2225;53.568;13.266;2023-03-08T09:29:40;6.40;90.30
4425;DHT22;2225;53.568;13.266;2023-03-08T09:32:07;6.50;90.10
4425;DHT22;2225;53.568;13.266;2023-03-08T09:34:34;6.50;90.00
4425;DHT22;2225;53.568;13.266;2023-03-08T09:37:01;6.50;90.00
4425;DHT22;2225;53.568;13.266;2023-03-08T09:39:29;6.50;89.60
4425;DHT22;2225;53.568;13.266;2023-03-08T09:42:03;6.60;89.90
4425;DHT22;2225;53.568;13.266;2023-03-08T09:47:46;6.60;89.60
4425;DHT22;2225;53.568;13.266;2023-03-08T09:50:31;6.70;90.00
4425;DHT22;2225;53.568;13.266;2023-03-08T09:53:31;6.70;89.90
4425;DHT22;2225;53.568;13.266;2023-03-08T09:59:00;6.80;89.20
4425;DHT22;2225;53.568;13.266;2023-03-08T10:02:09;6.80;89.00
4425;DHT22;2225;53.568;13.266;2023-03-08T10:05:02;6.90;88.80
4425;DHT22;2225;53.568;13.266;2023-03-08T10:10:35;6.90;87.50
4425;DHT22;2225;53.568;13.266;2023-03-08T10:13:27;6.90;87.50
4425;DHT22;2225;53.568;13.266;2023-03-08T10:16:11;7.00;88.30
4425;DHT22;2225;53.568;13.266;2023-03-08T10:18:57;7.00;87.30
4425;DHT22;2225;53.568;13.266;2023-03-08T10:21:29;7.00;86.80
4425;DHT22;2225;53.568;13.266;2023-03-08T10:26:39;7.10;85.80
4425;DHT22;2225;53.568;13.266;2023-03-08T10:29:12;7.10;86.00
4425;DHT22;2225;53.568;13.266;2023-03-08T10:31:42;7.10;86.30
4425;DHT22;2225;53.568;13.266;2023-03-08T10:34:15;7.20;86.20
4425;DHT22;2225;53.568;13.266;2023-03-08T10:36:52;7.20;86.80
4425;DHT22;2225;53.568;13.266;2023-03-08T10:39:23;7.30;85.70
4425;DHT22;2225;53.568;13.266;2023-03-08T10:41:53;7.40;84.20
4425;DHT22;2225;53.568;13.266;2023-03-08T10:44:39;7.50;84.00
4425;DHT22;2225;53.568;13.266;2023-03-08T10:47:28;7.50;82.90
4425;DHT22;2225;53.568;13.266;2023-03-08T10:50:11;7.60;82.70
4425;DHT22;2225;53.568;13.266;2023-03-08T10:52:41;7.60;83.00
4425;DHT22;2225;53.568;13.266;2023-03-08T10:55:13;7.70;82.30
4425;DHT22;2225;53.568;13.266;2023-03-08T10:57:53;7.70;82.00
4425;DHT22;2225;53.568;13.266;2023-03-08T11:00:33;7.70;82.00
4425;DHT22;2225;53.568;13.266;2023-03-08T11:03:19;7.80;81.70
4425;DHT22;2225;53.568;13.266;2023-03-08T11:06:04;7.80;81.40
4425;DHT22;2225;53.568;13.266;2023-03-08T11:08:50;7.90;80.80
4425;DHT22;2225;53.568;13.266;2023-03-08T11:11:26;7.90;80.70
4425;DHT22;2225;53.568;13.266;2023-03-08T11:13:53;7.90;80.20
4425;DHT22;2225;53.568;13.266;2023-03-08T11:22:37;8.00;79.60
4425;DHT22;2225;53.568;13.266;2023-03-08T11:25:41;8.00;78.80
4425;DHT22;2225;53.568;13.266;2023-03-08T11:28:22;8.00;79.00
4425;DHT22;2225;53.568;13.266;2023-03-08T11:37:43;8.20;78.10
4425;DHT22;2225;53.568;13.266;2023-03-08T11:42:52;8.30;79.10
4425;DHT22;2225;53.568;13.266;2023-03-08T11:48:40;8.30;79.30
4425;DHT22;2225;53.568;13.266;2023-03-08T11:51:43;8.40;79.20
4425;DHT22;2225;53.568;13.266;2023-03-08T11:54:48;8.40;78.90
4425;DHT22;2225;53.568;13.266;2023-03-08T11:57:43;8.40;78.50
4425;DHT22;2225;53.568;13.266;2023-03-08T12:00:22;8.40;78.90
4425;DHT22;2225;53.568;13.266;2023-03-08T12:02:53;8.40;79.60
4425;DHT22;2225;53.568;13.266;2023-03-08T12:05:36;8.40;79.70
4425;DHT22;2225;53.568;13.266;2023-03-08T12:10:59;8.40;78.90
4425;DHT22;2225;53.568;13.266;2023-03-08T12:13:38;8.50;79.30
4425;DHT22;2225;53.568;13.266;2023-03-08T12:16:22;8.50;79.50
4425;DHT22;2225;53.568;13.266;2023-03-08T12:19:20;8.50;79.50
4425;DHT22;2225;53.568;13.266;2023-03-08T12:27:55;8.70;79.20
4425;DHT22;2225;53.568;13.266;2023-03-08T12:33:19;8.70;79.30
4425;DHT22;2225;53.568;13.266;2023-03-08T12:35:54;8.80;80.00
4425;DHT22;2225;53.568;13.266;2023-03-08T12:38:29;8.80;78.90
4425;DHT22;2225;53.568;13.266;2023-03-08T12:41:17;8.80;78.60
4425;DHT22;2225;53.568;13.266;2023-03-08T12:44:04;8.80;79.40
4425;DHT22;2225;53.568;13.266;2023-03-08T12:46:48;8.90;79.10
4425;DHT22;2225;53.568;13.266;2023-03-08T12:49:37;8.90;78.20
4425;DHT22;2225;53.568;13.266;2023-03-08T12:54:57;9.00;78.10
4425;DHT22;2225;53.568;13.266;2023-03-08T12:57:32;9.10;77.30
4425;DHT22;2225;53.568;13.266;2023-03-08T13:08:02;9.30;76.30
4425;DHT22;2225;53.568;13.266;2023-03-08T13:10:38;9.30;76.10
4425;DHT22;2225;53.568;13.266;2023-03-08T13:16:37;9.30;74.50
4425;DHT22;2225;53.568;13.266;2023-03-08T13:24:55;9.20;73.70
4425;DHT22;2225;53.568;13.266;2023-03-08T13:27:48;9.10;75.10
4425;DHT22;2225;53.568;13.266;2023-03-08T13:30:35;9.10;75.40
4425;DHT22;2225;53.568;13.266;2023-03-08T13:33:07;9.10;75.30
4425;DHT22;2225;53.568;13.266;2023-03-08T13:35:38;9.00;75.50
4425;DHT22;2225;53.568;13.266;2023-03-08T13:38:05;9.00;76.00
4425;DHT22;2225;53.568;13.266;2023-03-08T13:40:32;9.00;75.20
4425;DHT22;2225;53.568;13.266;2023-03-08T13:43:04;8.90;75.50
4425;DHT22;2225;53.568;13.266;2023-03-08T13:45:34;8.90;75.50
4425;DHT22;2225;53.568;13.266;2023-03-08T13:48:05;8.90;75.80
4425;DHT22;2225;53.568;13.266;2023-03-08T13:50:41;8.90;75.80
4425;DHT22;2225;53.568;13.266;2023-03-08T13:53:15;8.90;75.40
4425;DHT22;2225;53.568;13.266;2023-03-08T13:55:45;8.90;75.40
4425;DHT22;2225;53.568;13.266;2023-03-08T13:58:30;8.90;75.30
4425;DHT22;2225;53.568;13.266;2023-03-08T14:01:09;8.90;75.50
4425;DHT22;2225;53.568;13.266;2023-03-08T14:03:41;8.90;75.60
4425;DHT22;2225;53.568;13.266;2023-03-08T14:06:20;8.80;75.50
4425;DHT22;2225;53.568;13.266;2023-03-08T14:08:49;8.90;74.90
4425;DHT22;2225;53.568;13.266;2023-03-08T14:11:22;8.90;74.20
4425;DHT22;2225;53.568;13.266;2023-03-08T14:13:57;8.90;73.60
4425;DHT22;2225;53.568;13.266;2023-03-08T14:16:33;8.90;73.70
4425;DHT22;2225;53.568;13.266;2023-03-08T14:19:23;8.90;73.60
4425;DHT22;2225;53.568;13.266;2023-03-08T14:22:01;8.90;73.60
4425;DHT22;2225;53.568;13.266;2023-03-08T14:24:35;8.90;73.30
4425;DHT22;2225;53.568;13.266;2023-03-08T14:27:35;8.90;72.70
4425;DHT22;2225;53.568;13.266;2023-03-08T14:30:14;8.90;72.00
4425;DHT22;2225;53.568;13.266;2023-03-08T14:35:42;8.90;73.30
4425;DHT22;2225;53.568;13.266;2023-03-08T14:40:51;8.80;73.20
4425;DHT22;2225;53.568;13.266;2023-03-08T14:43:20;8.80;74.10
4425;DHT22;2225;53.568;13.266;2023-03-08T14:45:55;8.80;72.90
4425;DHT22;2225;53.568;13.266;2023-03-08T14:48:28;8.80;73.40
4425;DHT22;2225;53.568;13.266;2023-03-08T14:51:04;8.80;73.30
4425;DHT22;2225;53.568;13.266;2023-03-08T14:53:36;8.80;72.50
4425;DHT22;2225;53.568;13.266;2023-03-08T14:56:15;8.80;72.80
4425;DHT22;2225;53.568;13.266;2023-03-08T14:58:44;8.80;72.50
4425;DHT22;2225;53.568;13.266;2023-03-08T15:01:29;8.80;72.90
4425;DHT22;2225;53.568;13.266;2023-03-08T15:04:01;8.80;74.10
4425;DHT22;2225;53.568;13.266;2023-03-08T15:06:33;8.70;73.40
4425;DHT22;2225;53.568;13.266;2023-03-08T15:09:02;8.80;73.40
4425;DHT22;2225;53.568;13.266;2023-03-08T15:11:31;8.80;73.40
4425;DHT22;2225;53.568;13.266;2023-03-08T15:13:59;8.80;73.50
4425;DHT22;2225;53.568;13.266;2023-03-08T15:16:26;8.80;73.50
4425;DHT22;2225;53.568;13.266;2023-03-08T15:18:53;8.80;73.40
4425;DHT22;2225;53.568;13.266;2023-03-08T15:21:26;8.80;73.10
4425;DHT22;2225;53.568;13.266;2023-03-08T15:23:54;8.80;72.20
4425;DHT22;2225;53.568;13.266;2023-03-08T15:26:26;8.80;72.40
4425;DHT22;2225;53.568;13.266;2023-03-08T15:28:58;8.80;72.70
4425;DHT22;2225;53.568;13.266;2023-03-08T15:31:29;8.70;72.50
4425;DHT22;2225;53.568;13.266;2023-03-08T15:33:57;8.70;73.30
4425;DHT22;2225;53.568;13.266;2023-03-08T15:36:23;8.70;73.40
4425;DHT22;2225;53.568;13.266;2023-03-08T15:38:50;8.70;73.40
4425;DHT22;2225;53.568;13.266;2023-03-08T15:41:17;8.70;73.20
4425;DHT22;2225;53.568;13.266;2023-03-08T15:43:44;8.70;73.20
4425;DHT22;2225;53.568;13.266;2023-03-08T15:46:12;8.70;73.80
4425;DHT22;2225;53.568;13.266;2023-03-08T15:48:40;8.70;73.10
4425;DHT22;2225;53.568;13.266;2023-03-08T15:51:16;8.70;73.30
4425;DHT22;2225;53.568;13.266;2023-03-08T15:53:44;8.70;73.30
4425;DHT22;2225;53.568;13.266;2023-03-08T15:56:12;8.70;73.30
4425;DHT22;2225;53.568;13.266;2023-03-08T15:58:39;8.60;73.10
4425;DHT22;2225;53.568;13.266;2023-03-08T16:01:06;8.60;73.20
4425;DHT22;2225;53.568;13.266;2023-03-08T16:03:33;8.60;72.90
4425;DHT22;2225;53.568;13.266;2023-03-08T16:06:01;8.60;72.80
4425;DHT22;2225;53.568;13.266;2023-03-08T16:08:28;8.50;72.80
4425;DHT22;2225;53.568;13.266;2023-03-08T16:10:56;8.50;72.80
4425;DHT22;2225;53.568;13.266;2023-03-08T16:13:29;8.50;72.40
4425;DHT22;2225;53.568;13.266;2023-03-08T16:15:58;8.40;72.50
4425;DHT22;2225;53.568;13.266;2023-03-08T16:18:27;8.40;72.60
4425;DHT22;2225;53.568;13.266;2023-03-08T16:20:56;8.40;72.80
4425;DHT22;2225;53.568;13.266;2023-03-08T16:23:24;8.30;73.40
4425;DHT22;2225;53.568;13.266;2023-03-08T16:26:02;8.20;73.50
4425;DHT22;2225;53.568;13.266;2023-03-08T16:28:42;8.20;73.90
4425;DHT22;2225;53.568;13.266;2023-03-08T16:31:10;8.10;75.00
4425;DHT22;2225;53.568;13.266;2023-03-08T16:33:37;8.00;74.40
4425;DHT22;2225;53.568;13.266;2023-03-08T16:36:04;8.00;74.70
4425;DHT22;2225;53.568;13.266;2023-03-08T16:38:31;7.90;75.40
4425;DHT22;2225;53.568;13.266;2023-03-08T16:40:59;7.80;75.40
4425;DHT22;2225;53.568;13.266;2023-03-08T16:43:38;7.70;75.60
4425;DHT22;2225;53.568;13.266;2023-03-08T16:46:16;7.70;76.60
4425;DHT22;2225;53.568;13.266;2023-03-08T16:48:47;7.60;76.10
4425;DHT22;2225;53.568;13.266;2023-03-08T16:51:17;7.50;76.20
4425;DHT22;2225;53.568;13.266;2023-03-08T16:53:44;7.50;76.60
4425;DHT22;2225;53.568;13.266;2023-03-08T16:56:23;7.40;76.60
4425;DHT22;2225;53.568;13.266;2023-03-08T16:58:53;7.40;77.10
4425;DHT22;2225;53.568;13.266;2023-03-08T17:01:22;7.30;77.30
4425;DHT22;2225;53.568;13.266;2023-03-08T17:03:50;7.20;77.40
4425;DHT22;2225;53.568;13.266;2023-03-08T17:06:19;7.20;77.70
4425;DHT22;2225;53.568;13.266;2023-03-08T17:08:47;7.10;78.60
4425;DHT22;2225;53.568;13.266;2023-03-08T17:11:23;7.00;78.10
4425;DHT22;2225;53.568;13.266;2023-03-08T17:13:53;7.00;78.40
4425;DHT22;2225;53.568;13.266;2023-03-08T17:16:24;7.00;78.70
4425;DHT22;2225;53.568;13.266;2023-03-08T17:18:53;6.90;79.00
4425;DHT22;2225;53.568;13.266;2023-03-08T17:21:20;6.80;79.10
4425;DHT22;2225;53.568;13.266;2023-03-08T17:23:49;6.80;79.40
4425;DHT22;2225;53.568;13.266;2023-03-08T17:26:20;6.80;79.90
4425;DHT22;2225;53.568;13.266;2023-03-08T17:28:49;6.70;79.90
4425;DHT22;2225;53.568;13.266;2023-03-08T17:31:19;6.70;80.00
4425;DHT22;2225;53.568;13.266;2023-03-08T17:33:47;6.70;80.20
4425;DHT22;2225;53.568;13.266;2023-03-08T17:36:14;6.60;80.60
4425;DHT22;2225;53.568;13.266;2023-03-08T17:38:42;6.60;80.30